Merrimack River @ Concord, Nh

Merrimack River at Concord
 Total Drainage Area: 2,385 sq. miles 
 Drainage Area Controlled by Corps Dams: 1,555 sq. miles (65%) 
 Warning Flow/Stage: ?? cfs / 10.0 feet 
 Flood Flow/Stage: ?? cfs / 13.7 feet 
Date Time
(Eastern)
Stage
(ft)
Flow
(cfs)
CSM
(cfs / sq. mi.)
Jun-25 12:30 am 4.55 4,600 1.9
Jun-24 11:30 pm 4.55 4,600 1.9
Jun-24 10:30 pm 4.55 4,600 1.9
Jun-24 09:30 pm 4.54 4,580 1.9
Jun-24 08:30 pm 4.55 4,600 1.9
Jun-24 07:30 pm 4.57 4,640 2.0
Jun-24 06:30 pm 4.60 4,700 2.0
Jun-24 05:30 pm 4.57 4,640 2.0
Jun-24 04:30 pm 4.50 4,500 1.9
Jun-24 03:30 pm 4.41 4,338 1.8
Jun-24 02:30 pm 4.34 4,212 1.8
Jun-24 01:30 pm 4.26 4,068 1.7
Jun-24 12:30 pm 4.20 3,960 1.7
Jun-24 11:30 am 4.14 3,852 1.6
Jun-24 10:30 am 4.11 3,798 1.6
Jun-24 09:30 am 4.05 3,690 1.6
Jun-24 08:30 am 4.01 3,618 1.5
Jun-24 07:30 am 4.00 3,600 1.5
Jun-24 06:30 am 3.99 3,582 1.5
Jun-24 05:30 am 4.01 3,618 1.5
Jun-24 04:30 am 4.03 3,654 1.5
Jun-24 03:30 am 4.03 3,654 1.5
Jun-24 02:30 am 4.02 3,636 1.5
Jun-24 01:30 am 4.01 3,618 1.5
Jun-24 12:30 am 4.00 3,600 1.5
Report Generated June 25, 2024 12:41 am